Time;durP1;ratioP1;P1;durP2;ratioP2;P2;SDS_P1;SDS_P2;PMS_P1;PMS_P2;Temp;Humidity;BMP_temperature;BMP_pressure;BME280_temperature;BME280_humidity;BME280_pressure;Samples;Min_cycle;Max_cycle;Signal;HPM_P1;HPM_P2
2021/06/11 00:00:12;;;;;;;20.52;16.05;;;15.70;99.90;;;;;;5069456;28;20415;-67
2021/06/11 00:02:41;;;;;;;20.05;16.10;;;15.60;99.90;;;;;;5066920;28;20042;-66
2021/06/11 00:05:10;;;;;;;19.42;16.05;;;15.60;99.90;;;;;;5069659;28;20048;-66
2021/06/11 00:07:38;;;;;;;20.52;15.95;;;15.50;99.90;;;;;;5062432;28;20056;-66
2021/06/11 00:10:08;;;;;;;20.60;16.83;;;15.50;99.90;;;;;;5071414;28;20136;-66
2021/06/11 00:12:35;;;;;;;19.27;15.60;;;15.40;99.90;;;;;;5066082;28;20053;-66
2021/06/11 00:15:03;;;;;;;22.27;18.02;;;15.40;99.90;;;;;;5070824;28;20106;-66
2021/06/11 00:17:54;;;;;;;21.58;16.70;;;15.40;99.90;;;;;;5067104;28;20169;-66
2021/06/11 00:20:22;;;;;;;21.40;17.35;;;15.40;99.90;;;;;;5058443;28;20044;-66
2021/06/11 00:22:50;;;;;;;20.42;16.15;;;15.40;99.90;;;;;;5070354;28;20102;-66
2021/06/11 00:25:23;;;;;;;22.75;17.15;;;15.30;99.90;;;;;;5070195;28;20067;-66
2021/06/11 00:28:01;;;;;;;25.05;18.08;;;15.30;99.90;;;;;;5069392;28;20402;-66
2021/06/11 00:30:30;;;;;;;20.55;16.40;;;15.30;99.90;;;;;;5064807;28;20706;-66
2021/06/11 00:32:59;;;;;;;24.88;18.25;;;15.20;99.90;;;;;;5068711;28;20644;-68
2021/06/11 00:35:31;;;;;;;22.80;17.67;;;15.20;99.90;;;;;;5064117;28;20049;-66
2021/06/11 00:37:59;;;;;;;24.40;17.95;;;15.20;99.90;;;;;;5064156;28;20048;-66
2021/06/11 00:40:27;;;;;;;24.02;17.83;;;15.20;99.90;;;;;;5070164;28;20414;-65
2021/06/11 00:42:55;;;;;;;25.60;17.65;;;15.10;99.90;;;;;;5069891;28;20086;-67
2021/06/11 00:45:22;;;;;;;24.90;18.15;;;15.10;99.90;;;;;;5067364;28;20570;-66
2021/06/11 00:47:49;;;;;;;26.98;18.08;;;15.10;99.90;;;;;;5063084;28;20446;-65
2021/06/11 00:50:22;;;;;;;29.88;19.67;;;15.10;99.90;;;;;;5062895;28;20044;-66
2021/06/11 00:52:54;;;;;;;29.33;20.80;;;15.00;99.90;;;;;;5084370;28;20048;-66
2021/06/11 00:55:22;;;;;;;33.65;22.83;;;15.00;99.90;;;;;;5057095;28;20045;-66
2021/06/11 00:57:49;;;;;;;29.70;20.42;;;15.10;99.90;;;;;;5063671;28;20464;-66
2021/06/11 01:00:18;;;;;;;33.35;21.15;;;15.10;99.90;;;;;;5058579;28;20076;-66
2021/06/11 01:02:45;;;;;;;27.77;20.15;;;15.20;99.90;;;;;;5066579;28;20468;-66
2021/06/11 01:05:13;;;;;;;24.55;17.13;;;15.20;99.90;;;;;;5068130;28;20144;-66
2021/06/11 01:07:42;;;;;;;25.33;19.02;;;15.20;99.90;;;;;;5070892;28;20041;-66
2021/06/11 01:10:12;;;;;;;24.00;17.33;;;15.20;99.90;;;;;;5067072;28;20060;-66
2021/06/11 01:12:40;;;;;;;23.23;17.35;;;15.30;99.90;;;;;;5055609;28;20067;-66
2021/06/11 01:15:08;;;;;;;24.08;17.75;;;15.30;99.90;;;;;;5060434;28;20360;-66
2021/06/11 01:17:36;;;;;;;23.27;17.63;;;15.30;99.90;;;;;;5071968;28;20632;-66
2021/06/11 01:20:10;;;;;;;21.98;15.85;;;15.30;99.90;;;;;;5067857;28;20074;-66
2021/06/11 01:22:59;;;;;;;29.00;19.90;;;15.30;99.90;;;;;;5073896;28;20105;-66
2021/06/11 01:25:51;;;;;;;23.45;17.08;;;15.40;99.90;;;;;;5071214;28;20499;-66
2021/06/11 01:28:20;;;;;;;31.30;20.52;;;15.50;99.90;;;;;;5069864;28;20060;-66
2021/06/11 01:30:50;;;;;;;27.20;19.15;;;15.50;99.90;;;;;;5073316;28;20098;-66
2021/06/11 01:33:20;;;;;;;27.95;19.02;;;15.60;99.90;;;;;;5072302;28;20072;-66
2021/06/11 01:36:01;;;;;;;26.73;18.98;;;15.70;99.90;;;;;;5067420;28;20070;-66
2021/06/11 01:38:40;;;;;;;26.10;18.30;;;15.70;99.90;;;;;;5065892;28;20041;-66
2021/06/11 01:41:10;;;;;;;25.88;19.15;;;15.80;99.90;;;;;;5066094;28;20135;-66
2021/06/11 01:43:39;;;;;;;25.08;18.98;;;15.80;99.90;;;;;;5062179;28;20307;-66
2021/06/11 01:46:10;;;;;;;30.40;20.25;;;15.80;99.90;;;;;;5061723;28;20558;-66
2021/06/11 01:48:39;;;;;;;;;;;15.80;99.90;;;;;;5066835;28;20474;-66
2021/06/11 01:51:09;;;;;;;24.33;16.73;;;15.80;99.90;;;;;;5071399;28;19931;-66
2021/06/11 01:53:38;;;;;;;28.65;19.25;;;15.80;99.90;;;;;;5071181;28;20075;-66
2021/06/11 01:56:06;;;;;;;28.58;20.02;;;15.80;99.90;;;;;;5069080;28;20045;-66
2021/06/11 01:58:35;;;;;;;31.02;20.73;;;15.80;99.90;;;;;;5061885;28;20047;-66
2021/06/11 02:01:03;;;;;;;26.58;18.80;;;15.80;99.90;;;;;;5066873;28;20080;-66
2021/06/11 02:03:30;;;;;;;33.05;20.30;;;15.80;99.90;;;;;;5061944;28;20576;-66
2021/06/11 02:05:59;;;;;;;27.38;18.40;;;15.80;99.90;;;;;;5071608;28;20098;-66
2021/06/11 02:08:28;;;;;;;33.53;20.73;;;15.80;99.90;;;;;;5070398;28;20044;-66
2021/06/11 02:10:57;;;;;;;31.40;20.75;;;15.80;99.90;;;;;;5066552;28;20144;-66
2021/06/11 02:13:25;;;;;;;28.58;19.20;;;15.80;99.90;;;;;;5070763;28;20083;-66
2021/06/11 02:15:54;;;;;;;27.85;17.35;;;15.80;99.90;;;;;;5066581;28;20537;-66
2021/06/11 02:18:22;;;;;;;32.60;21.55;;;15.80;99.90;;;;;;5070157;28;20139;-66
2021/06/11 02:20:53;;;;;;;32.40;19.45;;;15.90;99.90;;;;;;5069724;28;20545;-66
2021/06/11 02:23:20;;;;;;;30.55;19.88;;;15.90;99.90;;;;;;5070040;28;20541;-66
2021/06/11 02:25:48;;;;;;;33.53;20.35;;;15.90;99.90;;;;;;5074847;28;20560;-66
2021/06/11 02:28:16;;;;;;;32.58;20.77;;;15.80;99.90;;;;;;5072246;28;20127;-66
2021/06/11 02:30:44;;;;;;;31.42;20.10;;;15.80;99.90;;;;;;5070843;28;20044;-66
2021/06/11 02:33:14;;;;;;;31.42;19.73;;;15.80;99.90;;;;;;5071011;28;20048;-66
2021/06/11 02:35:42;;;;;;;27.73;18.00;;;15.80;99.90;;;;;;5067314;28;20077;-67
2021/06/11 02:38:09;;;;;;;34.65;21.42;;;15.80;99.90;;;;;;5060439;28;20131;-67
2021/06/11 02:40:37;;;;;;;31.48;20.20;;;15.70;99.90;;;;;;5086709;28;20052;-66
2021/06/11 02:43:09;;;;;;;39.25;22.45;;;15.70;99.90;;;;;;5064175;28;20536;-66
2021/06/11 02:46:04;;;;;;;33.30;21.58;;;15.70;99.90;;;;;;5059411;28;20056;-66
2021/06/11 02:48:53;;;;;;;31.85;20.08;;;15.80;99.90;;;;;;5065448;28;20104;-66
2021/06/11 02:51:45;;;;;;;34.92;22.35;;;15.80;99.90;;;;;;5072194;28;20083;-66
2021/06/11 02:54:26;;;;;;;33.58;20.30;;;15.80;99.90;;;;;;5061143;28;20046;-66
2021/06/11 02:57:01;;;;;;;33.17;20.98;;;15.80;99.90;;;;;;5070396;28;20124;-66
2021/06/11 02:59:33;;;;;;;45.60;22.60;;;15.80;99.90;;;;;;5070160;28;20090;-66
2021/06/11 03:02:04;;;;;;;36.70;21.90;;;15.80;99.90;;;;;;5071013;28;20139;-66
2021/06/11 03:04:32;;;;;;;32.97;21.13;;;15.70;99.90;;;;;;5071675;28;20131;-66
2021/06/11 03:07:01;;;;;;;36.38;21.17;;;15.70;99.90;;;;;;5068865;28;20501;-66
2021/06/11 03:09:33;;;;;;;34.17;20.75;;;15.70;99.90;;;;;;5060953;28;20056;-66
2021/06/11 03:12:03;;;;;;;34.47;21.35;;;15.70;99.90;;;;;;5051560;28;20095;-66
2021/06/11 03:14:33;;;;;;;32.75;19.30;;;15.80;99.90;;;;;;5067861;28;20495;-67
2021/06/11 03:17:02;;;;;;;40.72;21.08;;;15.80;99.90;;;;;;5060676;28;20589;-66
2021/06/11 03:19:33;;;;;;;32.63;19.05;;;15.70;99.90;;;;;;5066603;28;20048;-66
2021/06/11 03:22:07;;;;;;;35.78;20.20;;;15.70;99.90;;;;;;5069605;28;20585;-67
2021/06/11 03:24:57;;;;;;;37.53;20.65;;;15.70;99.90;;;;;;5069500;28;20052;-66
2021/06/11 03:27:31;;;;;;;36.45;21.10;;;15.80;99.90;;;;;;5074537;28;20044;-66
2021/06/11 03:30:09;;;;;;;32.13;18.45;;;15.70;99.90;;;;;;5071194;28;20467;-66
2021/06/11 03:33:00;;;;;;;35.47;20.17;;;15.80;99.90;;;;;;5065680;28;20052;-66
2021/06/11 03:35:42;;;;;;;34.75;18.15;;;15.80;99.90;;;;;;5049953;28;20084;-66
2021/06/11 03:38:15;;;;;;;33.78;18.95;;;15.80;99.90;;;;;;5050931;28;20053;-67
2021/06/11 03:40:45;;;;;;;34.75;19.17;;;15.80;99.90;;;;;;5048592;28;20056;-67
2021/06/11 03:43:14;;;;;;;32.95;17.63;;;15.80;99.90;;;;;;5050827;28;20053;-67
2021/06/11 03:45:42;;;;;;;35.90;18.83;;;15.90;99.90;;;;;;5066307;28;20048;-67
2021/06/11 03:48:15;;;;;;;27.83;16.27;;;15.90;99.90;;;;;;5069091;28;20060;-67
2021/06/11 03:50:47;;;;;;;26.17;16.80;;;15.90;99.90;;;;;;5069531;28;20091;-66
2021/06/11 03:53:17;;;;;;;36.78;19.60;;;15.90;99.90;;;;;;5062795;28;20139;-67
2021/06/11 03:55:47;;;;;;;24.50;15.00;;;15.90;99.90;;;;;;5070810;28;20106;-66
2021/06/11 03:58:28;;;;;;;41.38;20.67;;;15.90;99.90;;;;;;5065182;28;20415;-66
2021/06/11 04:00:58;;;;;;;28.98;18.23;;;15.90;99.90;;;;;;5069816;28;20103;-67
2021/06/11 04:03:27;;;;;;;28.17;16.48;;;15.90;99.90;;;;;;5067036;28;20135;-67
2021/06/11 04:06:31;;;;;;;23.60;15.93;;;15.90;99.90;;;;;;5065300;28;20048;-67
2021/06/11 04:09:11;;;;;;;29.42;18.33;;;15.90;99.90;;;;;;5019358;28;20081;-67
2021/06/11 04:11:52;;;;;;;28.67;17.67;;;16.00;99.90;;;;;;5023331;28;20129;-67
2021/06/11 04:14:25;;;;;;;26.77;17.17;;;16.00;99.90;;;;;;5006293;28;20512;-67
2021/06/11 04:16:57;;;;;;;28.15;17.27;;;16.10;99.90;;;;;;5022512;28;20379;-67
2021/06/11 04:19:28;;;;;;;24.40;16.23;;;16.10;99.90;;;;;;5009694;28;20050;-67
2021/06/11 04:21:58;;;;;;;30.55;18.80;;;16.10;99.90;;;;;;5028265;28;20111;-67
2021/06/11 04:24:37;;;;;;;34.97;19.48;;;16.00;99.90;;;;;;5027809;28;20132;-67
2021/06/11 04:27:14;;;;;;;27.23;18.15;;;16.00;99.90;;;;;;5007143;28;20050;-67
2021/06/11 04:29:42;;;;;;;149.38;22.13;;;15.90;99.90;;;;;;5007322;28;20068;-67
2021/06/11 04:32:09;;;;;;;24.38;16.92;;;15.90;99.90;;;;;;5026982;28;20438;-67
2021/06/11 04:34:37;;;;;;;33.28;19.95;;;15.70;99.90;;;;;;5027648;28;20091;-67
2021/06/11 04:37:04;;;;;;;22.13;15.30;;;15.70;99.90;;;;;;5024811;28;20716;-67
2021/06/11 04:39:32;;;;;;;22.23;15.73;;;15.80;99.90;;;;;;5019545;28;20412;-67
2021/06/11 04:41:59;;;;;;;24.75;16.13;;;15.80;99.90;;;;;;5032423;28;20567;-67
2021/06/11 04:44:26;;;;;;;28.00;19.02;;;15.80;99.90;;;;;;5074326;28;20080;-67
2021/06/11 04:46:54;;;;;;;25.30;18.05;;;15.80;99.90;;;;;;5073753;28;20048;-67
2021/06/11 04:49:22;;;;;;;21.15;15.90;;;15.80;99.90;;;;;;5072675;28;20075;-67
2021/06/11 04:51:49;;;;;;;21.90;15.45;;;15.80;99.90;;;;;;5054771;28;20132;-67
2021/06/11 04:54:17;;;;;;;22.58;16.50;;;16.00;99.90;;;;;;5066717;28;20090;-67
2021/06/11 04:56:44;;;;;;;18.52;13.75;;;16.00;99.90;;;;;;5071968;28;20076;-67
2021/06/11 04:59:12;;;;;;;22.48;15.18;;;16.10;99.90;;;;;;5065133;28;20053;-67
2021/06/11 05:01:39;;;;;;;25.92;17.20;;;16.20;99.90;;;;;;5088709;28;20040;-67
2021/06/11 05:04:06;;;;;;;23.17;15.80;;;16.30;99.90;;;;;;5072406;28;20084;-67
2021/06/11 05:06:33;;;;;;;24.75;17.70;;;16.40;99.90;;;;;;5073623;28;20495;-67
2021/06/11 05:09:02;;;;;;;27.50;18.38;;;16.60;99.90;;;;;;5065198;28;20135;-67
2021/06/11 05:11:29;;;;;;;31.85;21.15;;;16.70;99.90;;;;;;5066216;28;20127;-67
2021/06/11 05:13:57;;;;;;;27.48;18.48;;;16.70;99.90;;;;;;5071222;28;20143;-67
2021/06/11 05:16:26;;;;;;;26.42;18.02;;;16.80;99.90;;;;;;5066096;28;20048;-67
2021/06/11 05:18:53;;;;;;;32.70;20.75;;;16.90;99.90;;;;;;5071615;28;20461;-67
2021/06/11 05:21:21;;;;;;;29.83;19.50;;;16.90;99.90;;;;;;5064820;28;20119;-67
2021/06/11 05:23:48;;;;;;;26.88;17.55;;;17.00;99.90;;;;;;5070616;28;20147;-67
2021/06/11 05:26:15;;;;;;;25.15;17.40;;;17.10;99.90;;;;;;5072995;28;20560;-67
2021/06/11 05:28:43;;;;;;;27.55;18.92;;;17.10;99.90;;;;;;5073003;28;20076;-67
2021/06/11 05:31:10;;;;;;;27.33;18.60;;;17.20;99.90;;;;;;5058101;28;20119;-67
2021/06/11 05:33:38;;;;;;;28.95;19.08;;;17.30;99.90;;;;;;5071266;28;20036;-67
2021/06/11 05:36:05;;;;;;;29.48;19.90;;;17.30;99.90;;;;;;5069354;28;20044;-67
2021/06/11 05:38:33;;;;;;;25.48;16.13;;;17.40;99.90;;;;;;5068604;28;20052;-67
2021/06/11 05:41:02;;;;;;;25.83;18.52;;;17.50;99.90;;;;;;5070739;28;20459;-67
2021/06/11 05:43:30;;;;;;;28.90;20.50;;;17.60;99.90;;;;;;5069979;28;20100;-67
2021/06/11 05:45:57;;;;;;;27.50;18.50;;;17.60;99.90;;;;;;5069520;28;20087;-67
2021/06/11 05:48:25;;;;;;;30.67;22.15;;;17.70;99.90;;;;;;5071286;28;20098;-67
2021/06/11 05:50:53;;;;;;;29.52;19.77;;;17.60;99.90;;;;;;5055080;28;20411;-67
2021/06/11 05:53:22;;;;;;;33.35;22.92;;;17.50;99.90;;;;;;5060292;28;20130;-67
2021/06/11 05:55:54;;;;;;;35.40;23.13;;;17.50;99.90;;;;;;5062504;28;20041;-67
2021/06/11 05:58:21;;;;;;;25.80;19.08;;;17.40;99.90;;;;;;5058585;28;20076;-67
2021/06/11 06:00:49;;;;;;;26.08;18.92;;;17.40;99.90;;;;;;5062976;28;20557;-67
2021/06/11 06:03:16;;;;;;;32.17;22.90;;;17.50;99.90;;;;;;5072876;28;20097;-67
2021/06/11 06:05:44;;;;;;;32.55;21.52;;;17.60;99.90;;;;;;5070550;28;20120;-67
2021/06/11 06:08:15;;;;;;;30.48;20.88;;;17.60;99.90;;;;;;5080495;28;20052;-67
2021/06/11 06:10:42;;;;;;;32.65;23.65;;;17.70;99.90;;;;;;5069075;28;20061;-67
2021/06/11 06:13:09;;;;;;;29.67;20.63;;;17.60;99.90;;;;;;5070178;28;20032;-67
2021/06/11 06:15:41;;;;;;;28.38;19.80;;;17.50;99.90;;;;;;5072111;28;20082;-67
2021/06/11 06:18:10;;;;;;;34.53;22.98;;;17.70;99.90;;;;;;5071792;28;20449;-67
2021/06/11 06:20:38;;;;;;;33.35;24.30;;;17.80;99.90;;;;;;5071853;28;20489;-67
2021/06/11 06:23:05;;;;;;;33.28;24.25;;;17.90;99.90;;;;;;5067869;28;20045;-67
2021/06/11 06:25:32;;;;;;;35.15;25.00;;;18.00;99.90;;;;;;5072718;28;20470;-65
2021/06/11 06:28:00;;;;;;;33.15;23.10;;;18.10;99.90;;;;;;5071382;28;20108;-65
2021/06/11 06:30:27;;;;;;;43.67;22.63;;;18.10;99.90;;;;;;5072004;28;20056;-65
2021/06/11 06:32:54;;;;;;;35.95;24.05;;;18.30;99.90;;;;;;5069123;28;20048;-65
2021/06/11 06:35:22;;;;;;;31.27;23.42;;;18.60;99.90;;;;;;5053995;28;20087;-65
2021/06/11 06:37:49;;;;;;;27.38;20.33;;;18.40;99.90;;;;;;5071816;28;20403;-65
2021/06/11 06:40:17;;;;;;;30.08;22.15;;;18.60;99.90;;;;;;5071803;28;20048;-65
2021/06/11 06:42:45;;;;;;;26.90;21.15;;;18.90;99.90;;;;;;5071329;28;20106;-65
2021/06/11 06:45:15;;;;;;;36.00;25.80;;;19.10;99.90;;;;;;5071452;28;20169;-65
2021/06/11 06:47:44;;;;;;;26.63;21.13;;;19.20;99.90;;;;;;5070999;28;20048;-65
2021/06/11 06:50:17;;;;;;;28.10;22.08;;;19.30;99.90;;;;;;5064810;28;20060;-66
2021/06/11 06:52:45;;;;;;;25.83;20.67;;;19.50;99.90;;;;;;5063272;28;20048;-66
2021/06/11 06:55:13;;;;;;;26.67;21.73;;;19.60;99.90;;;;;;5060119;28;20758;-66
2021/06/11 06:57:40;;;;;;;29.92;23.65;;;19.50;99.90;;;;;;5058802;28;20049;-66
2021/06/11 07:00:09;;;;;;;31.95;24.10;;;19.70;99.90;;;;;;5058337;28;20136;-66
2021/06/11 07:02:36;;;;;;;26.83;21.25;;;19.50;99.90;;;;;;5067349;28;20048;-66
2021/06/11 07:05:05;;;;;;;29.20;23.25;;;19.50;99.90;;;;;;5071456;28;20076;-66
2021/06/11 07:07:32;;;;;;;26.23;21.33;;;19.80;99.90;;;;;;5070660;28;20069;-66
2021/06/11 07:10:00;;;;;;;29.38;23.73;;;19.90;99.90;;;;;;5071145;28;20044;-66
2021/06/11 07:12:27;;;;;;;27.27;22.27;;;20.00;99.90;;;;;;5069781;28;20463;-66
2021/06/11 07:14:54;;;;;;;24.27;20.08;;;19.90;99.90;;;;;;5057255;28;20045;-66
2021/06/11 07:17:22;;;;;;;25.73;21.67;;;20.10;99.90;;;;;;5063685;28;20071;-66
2021/06/11 07:19:49;;;;;;;26.20;22.40;;;20.20;99.90;;;;;;5048935;28;20064;-66
2021/06/11 07:22:17;;;;;;;28.13;22.65;;;20.10;99.90;;;;;;5051816;28;20554;-67
2021/06/11 07:24:44;;;;;;;27.95;22.85;;;20.30;99.90;;;;;;5059294;28;20060;-66
2021/06/11 07:27:16;;;;;;;25.02;21.05;;;20.40;99.90;;;;;;5057638;28;20040;-67
2021/06/11 07:29:44;;;;;;;26.05;19.98;;;20.50;99.90;;;;;;5065726;28;20052;-67
2021/06/11 07:32:13;;;;;;;25.48;20.73;;;20.60;99.90;;;;;;5056447;28;20642;-66
2021/06/11 07:34:42;;;;;;;23.98;20.73;;;20.60;99.90;;;;;;5066591;28;20064;-66
2021/06/11 07:37:09;;;;;;;27.23;22.33;;;20.60;99.90;;;;;;5069199;28;20080;-66
2021/06/11 07:39:37;;;;;;;30.00;24.80;;;20.60;99.90;;;;;;5071241;28;20040;-66
2021/06/11 07:42:05;;;;;;;26.25;20.35;;;20.30;99.90;;;;;;5068357;28;20044;-66
2021/06/11 07:44:34;;;;;;;31.60;26.05;;;20.10;99.90;;;;;;5056954;28;20044;-66
2021/06/11 07:47:01;;;;;;;24.48;20.83;;;20.00;99.90;;;;;;5067763;28;20064;-66
2021/06/11 07:49:29;;;;;;;29.65;25.45;;;19.90;99.90;;;;;;5066996;28;20045;-66
2021/06/11 07:51:58;;;;;;;29.45;22.73;;;20.00;99.90;;;;;;5059633;28;20458;-66
2021/06/11 07:54:25;;;;;;;24.08;21.25;;;19.90;99.90;;;;;;5065231;28;20819;-66
2021/06/11 07:56:53;;;;;;;29.70;24.42;;;20.00;99.90;;;;;;5070637;28;20542;-66
2021/06/11 07:59:21;;;;;;;34.00;26.20;;;20.10;99.90;;;;;;5065696;28;20399;-68
2021/06/11 08:01:48;;;;;;;32.13;26.83;;;20.10;99.90;;;;;;5066612;28;20056;-68
2021/06/11 08:04:16;;;;;;;29.58;23.63;;;20.00;99.90;;;;;;5056929;28;20055;-68
2021/06/11 08:06:44;;;;;;;36.28;29.38;;;19.90;99.90;;;;;;5069318;28;20502;-68
2021/06/11 08:09:12;;;;;;;31.63;25.73;;;19.60;99.90;;;;;;5067051;28;20665;-68
2021/06/11 08:11:39;;;;;;;28.55;24.42;;;19.60;99.90;;;;;;5064038;28;20503;-68
2021/06/11 08:14:07;;;;;;;32.15;26.67;;;19.50;99.90;;;;;;5053805;28;20076;-68
2021/06/11 08:16:34;;;;;;;30.48;24.27;;;19.50;99.90;;;;;;5058282;28;20051;-68
2021/06/11 08:19:02;;;;;;;32.63;27.05;;;19.50;99.90;;;;;;5062439;28;20438;-68
2021/06/11 08:21:29;;;;;;;34.15;27.83;;;19.60;99.90;;;;;;5071554;28;20052;-68
2021/06/11 08:23:57;;;;;;;31.35;25.30;;;19.70;99.90;;;;;;5063616;28;20135;-68
2021/06/11 08:26:24;;;;;;;26.92;22.58;;;19.90;99.90;;;;;;5070559;28;20092;-68
2021/06/11 08:28:51;;;;;;;27.15;21.45;;;19.90;99.90;;;;;;5072725;28;20076;-68
2021/06/11 08:31:19;;;;;;;26.83;23.58;;;20.10;99.90;;;;;;5067845;28;20134;-68
2021/06/11 08:33:47;;;;;;;28.30;23.15;;;20.20;99.90;;;;;;5073923;28;20563;-68
2021/06/11 08:36:15;;;;;;;31.58;25.38;;;20.30;99.90;;;;;;5063424;28;20088;-68
2021/06/11 08:38:42;;;;;;;30.95;25.52;;;20.40;99.90;;;;;;5058925;28;20140;-68
2021/06/11 08:41:12;;;;;;;30.63;25.63;;;20.50;99.90;;;;;;5073589;28;20090;-68
2021/06/11 08:43:40;;;;;;;36.97;27.58;;;20.50;99.90;;;;;;5067383;28;20442;-68
2021/06/11 08:46:09;;;;;;;26.83;21.45;;;20.50;99.90;;;;;;5070581;28;20090;-68
2021/06/11 08:48:37;;;;;;;32.53;25.23;;;20.60;99.90;;;;;;5065902;28;20052;-68
2021/06/11 08:51:09;;;;;;;29.80;24.38;;;20.70;99.90;;;;;;5057645;28;20119;-68
2021/06/11 08:53:37;;;;;;;34.30;26.15;;;20.70;99.90;;;;;;5073592;28;20107;-68
2021/06/11 08:56:05;;;;;;;30.67;25.73;;;20.70;99.90;;;;;;5073742;28;20079;-68
2021/06/11 08:58:38;;;;;;;27.00;21.55;;;20.70;99.90;;;;;;5064882;28;20048;-68
2021/06/11 09:01:07;;;;;;;30.70;24.15;;;20.90;99.90;;;;;;5070808;28;20047;-68
2021/06/11 09:03:45;;;;;;;32.45;24.48;;;21.00;99.90;;;;;;5072836;28;20087;-68
2021/06/11 09:06:13;;;;;;;29.38;23.42;;;20.90;99.90;;;;;;5072933;28;20072;-68
2021/06/11 09:08:48;;;;;;;24.45;19.92;;;21.00;99.90;;;;;;5073534;28;20514;-68
2021/06/11 09:11:21;;;;;;;23.63;18.35;;;21.10;99.90;;;;;;5070542;28;20044;-68
2021/06/11 09:14:00;;;;;;;24.33;18.90;;;21.30;99.90;;;;;;5064929;28;20139;-68
2021/06/11 09:16:28;;;;;;;21.95;17.42;;;21.50;99.90;;;;;;5071225;28;20352;-67
2021/06/11 09:18:58;;;;;;;23.15;17.80;;;21.60;99.90;;;;;;5070073;28;20048;-68
2021/06/11 09:21:43;;;;;;;23.98;20.17;;;21.80;99.90;;;;;;5069986;28;20576;-67
2021/06/11 09:24:25;;;;;;;22.90;17.90;;;21.80;99.90;;;;;;5063398;28;20047;-67
2021/06/11 09:26:58;;;;;;;27.40;21.77;;;22.00;99.90;;;;;;5075393;28;20692;-67
2021/06/11 09:29:34;;;;;;;24.02;19.85;;;22.10;99.90;;;;;;5072260;28;20672;-67
2021/06/11 09:32:30;;;;;;;20.23;16.50;;;22.20;99.90;;;;;;5057915;28;20053;-67
2021/06/11 09:35:04;;;;;;;17.63;15.38;;;22.40;99.90;;;;;;5072090;28;20068;-67
2021/06/11 09:37:34;;;;;;;19.63;16.73;;;22.60;99.90;;;;;;5071932;28;20052;-67
2021/06/11 09:40:12;;;;;;;22.17;16.73;;;22.60;99.90;;;;;;5072872;28;20055;-67
2021/06/11 09:42:44;;;;;;;15.68;13.98;;;22.70;99.90;;;;;;5072743;28;20041;-67
2021/06/11 09:45:15;;;;;;;18.85;15.90;;;22.90;99.90;;;;;;5065360;28;20049;-67
2021/06/11 09:47:51;;;;;;;19.25;14.40;;;23.00;99.90;;;;;;5071982;28;20512;-67
2021/06/11 09:50:30;;;;;;;20.10;15.68;;;23.20;99.90;;;;;;5066150;28;20062;-67
2021/06/11 09:53:02;;;;;;;15.27;13.70;;;23.20;99.90;;;;;;5071572;28;20450;-67
2021/06/11 09:55:40;;;;;;;15.40;13.80;;;23.20;99.90;;;;;;5071894;28;20461;-67
2021/06/11 09:58:10;;;;;;;13.38;12.15;;;23.30;99.90;;;;;;5060517;28;20161;-67
2021/06/11 10:01:00;;;;;;;16.50;14.77;;;23.40;99.90;;;;;;5072688;28;20091;-67
2021/06/11 10:03:34;;;;;;;16.95;15.30;;;23.40;99.90;;;;;;5069287;28;20113;-68
2021/06/11 10:06:04;;;;;;;17.95;16.15;;;23.40;99.90;;;;;;5071252;28;20566;-68
2021/06/11 10:08:32;;;;;;;15.60;14.10;;;23.50;99.90;;;;;;5071496;28;20052;-67
2021/06/11 10:11:04;;;;;;;17.23;13.85;;;23.60;99.90;;;;;;5071855;28;20063;-67
2021/06/11 10:13:33;;;;;;;17.15;15.38;;;23.80;99.90;;;;;;5071231;28;20041;-68
2021/06/11 10:16:05;;;;;;;14.70;13.20;;;23.80;99.90;;;;;;5063453;28;20139;-67
2021/06/11 10:18:33;;;;;;;14.90;13.60;;;23.90;99.90;;;;;;5070071;28;20078;-67
2021/06/11 10:21:01;;;;;;;17.75;16.15;;;24.00;99.90;;;;;;5064929;28;20119;-68
2021/06/11 10:23:30;;;;;;;18.75;16.90;;;24.10;99.90;;;;;;5058846;28;20102;-68
2021/06/11 10:26:00;;;;;;;18.15;16.33;;;24.00;99.90;;;;;;5074802;28;20091;-66
2021/06/11 10:28:39;;;;;;;19.35;16.90;;;24.10;99.90;;;;;;5071926;28;20090;-66
2021/06/11 10:31:13;;;;;;;18.70;16.83;;;24.10;99.90;;;;;;5072129;28;20056;-66
2021/06/11 10:33:43;;;;;;;16.25;14.68;;;24.20;99.90;;;;;;5057173;28;20118;-67
2021/06/11 10:36:40;;;;;;;18.30;16.60;;;24.20;99.90;;;;;;5061821;28;20061;-66
2021/06/11 10:39:10;;;;;;;16.33;14.25;;;24.20;99.90;;;;;;5063020;28;20056;-66
2021/06/11 10:41:53;;;;;;;15.73;14.23;;;24.40;99.90;;;;;;5063166;28;20044;-66
2021/06/11 10:44:50;;;;;;;17.35;15.75;;;24.60;99.90;;;;;;5070807;28;20040;-66
2021/06/11 10:47:17;;;;;;;17.02;15.45;;;24.60;99.90;;;;;;5066928;28;20048;-66
2021/06/11 10:50:04;;;;;;;15.35;14.05;;;24.60;99.90;;;;;;5071011;28;20052;-66
2021/06/11 10:52:53;;;;;;;16.70;15.10;;;24.80;99.90;;;;;;5067501;28;20090;-66
2021/06/11 10:55:21;;;;;;;16.50;14.75;;;25.00;99.90;;;;;;5065303;28;20052;-66
2021/06/11 10:57:59;;;;;;;14.98;13.50;;;25.20;99.90;;;;;;5071210;28;20044;-67
2021/06/11 11:00:37;;;;;;;13.93;12.52;;;25.30;99.90;;;;;;5071431;28;20040;-66
2021/06/11 11:03:07;;;;;;;13.40;12.20;;;25.40;99.90;;;;;;5069090;28;20060;-66
2021/06/11 11:05:39;;;;;;;14.07;12.77;;;25.40;99.90;;;;;;5063851;28;20409;-67
2021/06/11 11:08:08;;;;;;;15.88;14.38;;;25.40;99.90;;;;;;5068009;28;20157;-67
2021/06/11 11:10:48;;;;;;;14.70;13.40;;;25.50;99.90;;;;;;5070362;28;20418;-68
2021/06/11 11:13:20;;;;;;;13.10;12.00;;;25.60;99.90;;;;;;5061070;28;20082;-68
2021/06/11 11:15:49;;;;;;;12.20;11.07;;;25.70;99.90;;;;;;5064228;28;20048;-68
2021/06/11 11:18:33;;;;;;;12.70;11.60;;;25.90;99.90;;;;;;5067338;28;20067;-68
2021/06/11 11:21:20;;;;;;;15.15;13.85;;;26.20;99.90;;;;;;5060501;28;20048;-68
2021/06/11 11:23:52;;;;;;;13.40;12.30;;;26.50;99.90;;;;;;5069166;28;20449;-68
2021/06/11 11:26:36;;;;;;;15.20;13.80;;;26.70;99.90;;;;;;5071210;28;20040;-68
2021/06/11 11:29:04;;;;;;;16.33;14.88;;;26.90;99.90;;;;;;5085216;28;20495;-68
2021/06/11 11:31:31;;;;;;;14.68;13.30;;;26.60;99.90;;;;;;5072105;28;20072;-68
2021/06/11 11:33:59;;;;;;;14.70;13.43;;;26.50;99.90;;;;;;5068721;28;20055;-67
2021/06/11 11:36:26;;;;;;;15.02;13.52;;;26.60;99.90;;;;;;5067321;28;20074;-68
2021/06/11 11:38:54;;;;;;;13.55;12.45;;;26.80;99.90;;;;;;5069190;28;20068;-68
2021/06/11 11:41:21;;;;;;;15.25;13.88;;;26.80;99.90;;;;;;5061576;28;20099;-68
2021/06/11 11:43:49;;;;;;;14.05;12.85;;;26.70;99.90;;;;;;5065977;28;20467;-68
2021/06/11 11:46:17;;;;;;;12.95;11.82;;;26.80;99.90;;;;;;5060147;28;20131;-68
2021/06/11 11:48:45;;;;;;;13.52;12.43;;;26.80;99.90;;;;;;5067921;28;20136;-68
2021/06/11 11:51:12;;;;;;;13.20;12.20;;;26.90;99.90;;;;;;5050447;28;20474;-67
2021/06/11 11:53:40;;;;;;;13.95;12.68;;;27.10;99.90;;;;;;5068020;28;20090;-68
2021/06/11 11:56:07;;;;;;;13.77;12.63;;;27.40;99.90;;;;;;5069853;28;20494;-69
2021/06/11 11:58:35;;;;;;;15.13;13.70;;;27.30;99.90;;;;;;5068947;28;20234;-68
2021/06/11 12:01:04;;;;;;;13.38;12.38;;;27.30;99.90;;;;;;5070092;28;20164;-70
2021/06/11 12:03:31;;;;;;;14.93;13.57;;;27.60;99.90;;;;;;5063965;28;20053;-69
2021/06/11 12:05:59;;;;;;;12.65;11.65;;;27.50;99.90;;;;;;5061268;28;20052;-69
2021/06/11 12:08:41;;;;;;;13.98;12.85;;;27.70;99.90;;;;;;5070008;28;20450;-68
2021/06/11 12:11:08;;;;;;;13.77;12.77;;;27.90;99.90;;;;;;5068925;28;20068;-68
2021/06/11 12:13:35;;;;;;;13.85;12.85;;;27.80;99.90;;;;;;5059984;28;20076;-68
2021/06/11 12:16:05;;;;;;;14.05;12.93;;;27.80;99.90;;;;;;5064204;28;20053;-68
2021/06/11 12:18:35;;;;;;;13.77;12.63;;;28.10;99.90;;;;;;5059691;28;20052;-68
2021/06/11 12:21:02;;;;;;;12.25;11.35;;;28.20;99.90;;;;;;5069193;28;20466;-68
2021/06/11 12:23:30;;;;;;;11.93;11.02;;;28.70;99.90;;;;;;5070214;28;20044;-68
2021/06/11 12:25:57;;;;;;;12.57;11.23;;;28.90;99.90;;;;;;5074230;28;20219;-68
2021/06/11 12:28:25;;;;;;;12.48;11.57;;;29.20;99.90;;;;;;5065799;28;20376;-68
2021/06/11 12:30:53;;;;;;;13.02;12.02;;;29.50;99.90;;;;;;5064337;28;20079;-68
2021/06/11 12:33:20;;;;;;;12.52;11.30;;;29.20;99.90;;;;;;5067744;28;20419;-68
2021/06/11 12:35:48;;;;;;;13.02;12.02;;;28.90;99.90;;;;;;5064190;28;20045;-69
2021/06/11 12:38:15;;;;;;;12.32;11.43;;;29.10;99.90;;;;;;5065545;28;20057;-68
2021/06/11 12:40:46;;;;;;;13.32;12.20;;;29.00;99.90;;;;;;5049831;28;20396;-68
2021/06/11 12:43:19;;;;;;;13.20;12.10;;;29.20;99.90;;;;;;5047854;28;20147;-68
2021/06/11 12:45:46;;;;;;;13.00;11.85;;;29.20;99.90;;;;;;5061694;28;20060;-68